createdAt,value
2022-12-11T00:00:39.108Z,-1.35
2022-12-11T21:02:07.883Z,-0.58
2022-12-11T21:04:39.510Z,-0.61
2022-12-11T21:07:05.971Z,-0.62
2022-12-11T21:09:32.388Z,-0.67
2022-12-11T21:12:00.667Z,-0.65
2022-12-11T21:14:28.286Z,-0.69
2022-12-11T21:16:55.328Z,-0.69
2022-12-11T21:19:22.070Z,-0.69
2022-12-11T21:21:48.609Z,-0.65
2022-12-11T21:24:26.268Z,-0.71
2022-12-11T21:26:55.325Z,-0.70
2022-12-11T21:29:23.493Z,-0.69
2022-12-11T21:31:51.229Z,-0.69
2022-12-11T21:34:24.892Z,-0.79
2022-12-11T21:36:56.335Z,-0.88
2022-12-11T21:39:24.038Z,-0.89
2022-12-11T21:41:50.466Z,-0.95
2022-12-11T21:47:03.418Z,-0.97
2022-12-11T21:49:29.811Z,-1.00
2022-12-11T21:51:56.152Z,-1.07
2022-12-11T21:54:22.672Z,-1.10
2022-12-11T21:56:49.088Z,-1.11
2022-12-11T21:59:15.802Z,-1.19
2022-12-11T22:01:45.688Z,-1.23
2022-12-11T22:04:13.012Z,-1.23
2022-12-11T22:06:43.506Z,-1.25
2022-12-11T22:09:12.256Z,-1.22
2022-12-11T22:11:39.505Z,-1.21
2022-12-11T22:14:06.763Z,-1.20
2022-12-11T22:16:34.913Z,-1.18
2022-12-11T22:19:01.441Z,-1.14
2022-12-11T22:21:28.241Z,-1.09
2022-12-11T22:23:54.636Z,-1.08
2022-12-11T22:26:23.995Z,-1.11
2022-12-11T22:28:51.036Z,-1.10
2022-12-11T22:31:20.434Z,-1.05
2022-12-11T22:33:53.475Z,-1.06
2022-12-11T22:36:20.329Z,-1.05
2022-12-11T22:38:47.635Z,-1.03
2022-12-11T22:41:25.348Z,-0.99
2022-12-11T22:43:51.858Z,-0.99
2022-12-11T22:46:19.718Z,-0.95
2022-12-11T22:48:46.378Z,-0.92
2022-12-11T22:51:13.250Z,-0.90
2022-12-11T22:53:39.636Z,-0.89
2022-12-11T22:56:08.051Z,-0.85
2022-12-11T22:58:34.589Z,-0.86
2022-12-11T23:01:01.940Z,-0.89
2022-12-11T23:03:28.300Z,-0.89
2022-12-11T23:05:55.027Z,-0.82
2022-12-11T23:08:21.500Z,-0.82
2022-12-11T23:10:48.077Z,-0.83
2022-12-11T23:13:14.523Z,-0.84
2022-12-11T23:15:40.899Z,-0.83
2022-12-11T23:18:07.282Z,-0.87
2022-12-11T23:20:33.682Z,-0.85
2022-12-11T23:23:00.043Z,-0.84
2022-12-11T23:25:27.824Z,-0.76
2022-12-11T23:27:54.271Z,-0.82
2022-12-11T23:30:20.795Z,-0.79
2022-12-11T23:32:47.294Z,-0.83
2022-12-11T23:35:14.099Z,-0.79
2022-12-11T23:37:40.608Z,-0.83
2022-12-11T23:40:08.916Z,-0.89
2022-12-11T23:42:35.294Z,-0.92
2022-12-11T23:45:01.705Z,-0.83
2022-12-11T23:47:28.090Z,-0.97
2022-12-11T23:49:54.425Z,-0.91
2022-12-11T23:52:22.519Z,-0.87
2022-12-11T23:54:48.958Z,-0.93
2022-12-11T23:57:15.326Z,-0.89
2022-12-11T23:59:41.673Z,-0.95
